weather station
Area: 11014 km2
The highest point: Tok (865 m.s.l.)
Total stations: 40
Stations online: 36
Stations offline: 4
Current weather
16°C

Meteorological map - weather stations in Středočeský

. The meteorological maps show weather information from WARIO weather stations

Weather stations Středočeský

 UpdatesNameStatusTemperatureHumidityWind speedWind direction
23.6.2017 02:03Kolín16.8 °C100.0 %0.7 m/s SW
23.6.2017 02:04Bořanovice15.1 °C100.0 %2.0 m/s SE
23.6.2017 02:03Kutná Hora15.6 °C100.0 %1.2 m/s NE
23.6.2017 02:04Králův Dvůr15.8 °C89.6 %1.0 m/s W
23.6.2017 02:03Chotětov15.7 °C100.0 %1.1 m/s E
23.6.2017 02:03Opolany15.5 °C100.0 %1.1 m/s NW
23.6.2017 02:04Hostín u Vojkovic15.8 °C98.9 %3.5 m/s SE
23.6.2017 02:04Sedlčany15.3 °C94.6 %1.0 m/s S
23.6.2017 02:03Hradištko I15.7 °C100.0 %2.5 m/s N
23.6.2017 02:03Hřebeč15.0 °C100.0 %2.1 m/s W
23.6.2017 02:04Mělník16.3 °C99.4 %2.6 m/s NE
23.6.2017 02:04Jiřetice15.5 °C100.0 %3.6 m/s W
23.6.2017 02:04Kněžmost19.0 °C100.0 %1.4 m/s SW
23.6.2017 02:04Kojetice15.6 °C100.0 %3.2 m/s S
23.6.2017 02:03Křinec16.2 °C97.3 %0.7 m/s SE
23.6.2017 02:04Libeř16.6 °C94.5 %0.5 m/s N
23.6.2017 01:12Sazená15.1 °C100.0 %0.0 m/s NE
23.6.2017 02:03Malý Újezd15.4 °C96.6 %3.9 m/s E
23.6.2017 02:04Zdice16.3 °C99.9 %2.1 m/s S
23.6.2017 02:04Červený Újezd14.6 °C92.7 %1.9 m/s S
23.6.2017 02:04Mělník16.1 °C99.0 %1.9 m/s E
14.6.2017 22:29Řevnice14.7 °C62.7 %0.0 m/s W
23.6.2017 02:03Olešná14.6 °C95.6 %3.3 m/s SE
23.6.2017 02:03Srby14.9 °C100.0 %1.9 m/s S
23.6.2017 02:03Kralupy nad Vltavou15.9 °C99.0 %2.3 m/s SE
23.6.2017 02:03Mrač15.5 °C98.4 %1.3 m/s E
23.6.2017 02:04Dolní Jirčany14.6 °C100.0 %4.2 m/s E
23.6.2017 02:04Bratčice15.8 °C98.5 %5.0 m/s W
23.6.2017 02:03Mirošovice14.8 °C100.0 %2.2 m/s SE
23.6.2017 00:58Odolena voda16.3 °C96.6 %9.9 m/s NW
22.6.2017 19:16Oseček28.5 °C49.3 %1.4 m/s N
23.6.2017 02:03Pátek16.3 °C100.0 %1.3 m/s S
23.6.2017 02:04Radlice15.2 °C98.0 %0.9 m/s S
23.6.2017 02:03Kosmonosy15.3 °C100.0 %2.0 m/s NW
23.6.2017 02:03Toušice15.2 °C100.0 %1.5 m/s NE
23.6.2017 02:03Srby14.9 °C95.7 %1.3 m/s E
23.6.2017 02:04Vestec15.0 °C100.0 %3.6 m/s S
23.6.2017 02:04Vidice16.3 °C100.0 %0.7 m/s SW
23.6.2017 02:03Nebřich15.3 °C98.8 %1.7 m/s W
23.6.2017 02:04Zibohlavy15.2 °C100.0 %1.4 m/s NE
Email notifications
Enter your email address to subscribe to notifications about news at warioweather.com. Your email address will not be used for any purpose other than sending these emails and will not be provided to any third party. The subscription can be ended at any time.
All data are only indicative. The portal administrator has no responsibility for potentially incorrect data and related consequences. Publishing or further sharing of content from www.warioweather.com is only allowed with written consent from WANET s.r.o.